sensor_id;sensor_type;location;lat;lon;timestamp;pressure;altitude;pressure_sealevel;temperature;humidity
49178;BME280;35016;55.674;37.468;2022-08-01T00:00:45;99310.44;;;17.72;48.36
49178;BME280;35016;55.674;37.468;2022-08-01T00:03:12;99314.63;;;17.69;48.17
49178;BME280;35016;55.674;37.468;2022-08-01T00:05:39;99305.59;;;17.69;48.50
49178;BME280;35016;55.674;37.468;2022-08-01T00:08:10;99302.63;;;17.65;48.39
49178;BME280;35016;55.674;37.468;2022-08-01T00:10:38;99310.63;;;17.61;48.29
49178;BME280;35016;55.674;37.468;2022-08-01T00:13:05;99304.56;;;17.64;48.26
49178;BME280;35016;55.674;37.468;2022-08-01T00:15:32;99298.84;;;17.61;48.31
49178;BME280;35016;55.674;37.468;2022-08-01T00:18:00;99297.56;;;17.58;48.34
49178;BME280;35016;55.674;37.468;2022-08-01T00:20:28;99309.94;;;17.56;48.72
49178;BME280;35016;55.674;37.468;2022-08-01T00:22:55;99293.00;;;17.54;48.78
49178;BME280;35016;55.674;37.468;2022-08-01T00:25:22;99296.50;;;17.46;48.39
49178;BME280;35016;55.674;37.468;2022-08-01T00:28:00;99302.16;;;17.49;48.55
49178;BME280;35016;55.674;37.468;2022-08-01T00:30:30;99294.81;;;17.36;48.55
49178;BME280;35016;55.674;37.468;2022-08-01T00:32:58;99295.69;;;17.45;48.72
49178;BME280;35016;55.674;37.468;2022-08-01T00:35:25;99304.72;;;17.46;48.76
49178;BME280;35016;55.674;37.468;2022-08-01T00:37:52;99297.91;;;17.43;48.74
49178;BME280;35016;55.674;37.468;2022-08-01T00:40:19;99292.25;;;17.40;48.68
49178;BME280;35016;55.674;37.468;2022-08-01T00:42:46;99308.50;;;17.36;48.89
49178;BME280;35016;55.674;37.468;2022-08-01T00:45:13;99314.81;;;17.37;48.75
49178;BME280;35016;55.674;37.468;2022-08-01T00:47:40;99309.91;;;17.33;48.73
49178;BME280;35016;55.674;37.468;2022-08-01T00:50:08;99305.25;;;17.34;49.04
49178;BME280;35016;55.674;37.468;2022-08-01T00:52:35;99319.25;;;17.32;48.68
49178;BME280;35016;55.674;37.468;2022-08-01T00:55:03;99306.16;;;17.29;49.24
49178;BME280;35016;55.674;37.468;2022-08-01T00:57:31;99315.50;;;17.28;49.12
49178;BME280;35016;55.674;37.468;2022-08-01T01:00:19;99304.34;;;17.25;48.87
49178;BME280;35016;55.674;37.468;2022-08-01T01:02:53;99295.94;;;17.21;48.88
49178;BME280;35016;55.674;37.468;2022-08-01T01:05:20;99308.72;;;17.26;49.17
49178;BME280;35016;55.674;37.468;2022-08-01T01:07:54;99309.84;;;17.25;49.36
49178;BME280;35016;55.674;37.468;2022-08-01T01:10:39;99297.25;;;17.24;49.51
49178;BME280;35016;55.674;37.468;2022-08-01T01:13:19;99304.66;;;17.23;49.71
49178;BME280;35016;55.674;37.468;2022-08-01T01:15:59;99289.56;;;17.12;49.76
49178;BME280;35016;55.674;37.468;2022-08-01T01:26:59;99293.13;;;17.13;50.03
49178;BME280;35016;55.674;37.468;2022-08-01T01:29:31;99298.09;;;17.11;50.16
49178;BME280;35016;55.674;37.468;2022-08-01T01:32:23;99300.03;;;17.10;50.33
49178;BME280;35016;55.674;37.468;2022-08-01T01:34:58;99288.88;;;17.07;50.29
49178;BME280;35016;55.674;37.468;2022-08-01T01:37:29;99281.25;;;17.03;50.52
49178;BME280;35016;55.674;37.468;2022-08-01T01:39:59;99295.44;;;17.06;50.39
49178;BME280;35016;55.674;37.468;2022-08-01T01:42:30;99294.94;;;17.03;50.52
49178;BME280;35016;55.674;37.468;2022-08-01T01:44:58;99290.41;;;16.99;50.56
49178;BME280;35016;55.674;37.468;2022-08-01T01:47:28;99292.22;;;17.03;50.90
49178;BME280;35016;55.674;37.468;2022-08-01T01:49:56;99296.38;;;17.01;50.55
49178;BME280;35016;55.674;37.468;2022-08-01T01:52:24;99285.72;;;16.99;51.11
49178;BME280;35016;55.674;37.468;2022-08-01T01:54:54;99297.50;;;17.00;50.98
49178;BME280;35016;55.674;37.468;2022-08-01T01:57:23;99293.44;;;16.97;51.13
49178;BME280;35016;55.674;37.468;2022-08-01T01:59:52;99294.13;;;17.03;51.11
49178;BME280;35016;55.674;37.468;2022-08-01T02:02:22;99292.00;;;17.00;51.26
49178;BME280;35016;55.674;37.468;2022-08-01T02:04:50;99294.75;;;17.00;51.22
49178;BME280;35016;55.674;37.468;2022-08-01T02:07:24;99305.41;;;17.01;51.73
49178;BME280;35016;55.674;37.468;2022-08-01T02:09:52;99288.34;;;17.04;51.03
49178;BME280;35016;55.674;37.468;2022-08-01T02:12:21;99298.72;;;17.08;51.04
49178;BME280;35016;55.674;37.468;2022-08-01T02:15:12;99289.97;;;17.06;51.15
49178;BME280;35016;55.674;37.468;2022-08-01T02:17:43;99280.56;;;16.98;51.00
49178;BME280;35016;55.674;37.468;2022-08-01T02:20:11;99301.53;;;17.16;51.24
49178;BME280;35016;55.674;37.468;2022-08-01T02:23:01;99308.53;;;17.22;51.40
49178;BME280;35016;55.674;37.468;2022-08-01T02:25:39;99296.44;;;17.23;51.52
49178;BME280;35016;55.674;37.468;2022-08-01T02:28:31;99289.22;;;17.27;51.06
49178;BME280;35016;55.674;37.468;2022-08-01T02:31:12;99287.16;;;17.33;51.45
49178;BME280;35016;55.674;37.468;2022-08-01T02:33:46;99289.09;;;17.32;51.16
49178;BME280;35016;55.674;37.468;2022-08-01T02:36:16;99297.53;;;17.36;50.74
49178;BME280;35016;55.674;37.468;2022-08-01T02:38:59;99293.56;;;17.42;50.61
49178;BME280;35016;55.674;37.468;2022-08-01T02:41:28;99309.69;;;17.44;50.56
49178;BME280;35016;55.674;37.468;2022-08-01T02:43:59;99298.72;;;17.44;50.52
49178;BME280;35016;55.674;37.468;2022-08-01T02:46:36;99309.25;;;17.50;50.96
49178;BME280;35016;55.674;37.468;2022-08-01T02:49:07;99285.22;;;17.47;50.99
49178;BME280;35016;55.674;37.468;2022-08-01T02:51:35;99294.81;;;17.58;50.83
49178;BME280;35016;55.674;37.468;2022-08-01T02:54:05;99293.06;;;17.62;50.56
49178;BME280;35016;55.674;37.468;2022-08-01T02:56:34;99286.19;;;17.65;50.49
49178;BME280;35016;55.674;37.468;2022-08-01T02:59:05;99299.78;;;17.70;51.03
49178;BME280;35016;55.674;37.468;2022-08-01T03:01:36;99283.03;;;17.72;50.98
49178;BME280;35016;55.674;37.468;2022-08-01T03:04:07;99282.88;;;17.77;50.54
49178;BME280;35016;55.674;37.468;2022-08-01T03:06:37;99274.97;;;17.75;50.59
49178;BME280;35016;55.674;37.468;2022-08-01T03:09:06;99307.94;;;17.84;50.83
49178;BME280;35016;55.674;37.468;2022-08-01T03:11:35;99287.47;;;17.90;50.38
49178;BME280;35016;55.674;37.468;2022-08-01T03:14:07;99298.34;;;17.95;50.20
49178;BME280;35016;55.674;37.468;2022-08-01T03:16:37;99295.16;;;18.02;50.22
49178;BME280;35016;55.674;37.468;2022-08-01T03:19:07;99295.03;;;18.07;50.41
49178;BME280;35016;55.674;37.468;2022-08-01T03:21:35;99285.53;;;18.13;50.23
49178;BME280;35016;55.674;37.468;2022-08-01T03:24:06;99288.59;;;18.11;50.07
49178;BME280;35016;55.674;37.468;2022-08-01T03:26:36;99300.41;;;18.20;50.05
49178;BME280;35016;55.674;37.468;2022-08-01T03:29:08;99307.91;;;18.29;49.70
49178;BME280;35016;55.674;37.468;2022-08-01T03:31:38;99292.25;;;18.29;49.81
49178;BME280;35016;55.674;37.468;2022-08-01T03:34:09;99301.03;;;18.40;49.63
49178;BME280;35016;55.674;37.468;2022-08-01T03:36:48;99303.78;;;18.48;49.48
49178;BME280;35016;55.674;37.468;2022-08-01T03:39:17;99283.28;;;18.46;49.25
49178;BME280;35016;55.674;37.468;2022-08-01T03:41:52;99285.94;;;18.60;49.64
49178;BME280;35016;55.674;37.468;2022-08-01T03:44:26;99288.06;;;18.63;49.41
49178;BME280;35016;55.674;37.468;2022-08-01T03:47:01;99292.44;;;18.72;49.27
49178;BME280;35016;55.674;37.468;2022-08-01T03:49:41;99284.38;;;18.76;49.36
49178;BME280;35016;55.674;37.468;2022-08-01T03:52:10;99281.50;;;18.81;48.82
49178;BME280;35016;55.674;37.468;2022-08-01T03:54:45;99273.75;;;18.83;49.13
49178;BME280;35016;55.674;37.468;2022-08-01T03:57:14;99293.66;;;18.97;48.81
49178;BME280;35016;55.674;37.468;2022-08-01T04:00:03;99273.63;;;18.97;48.61
49178;BME280;35016;55.674;37.468;2022-08-01T04:02:38;99278.31;;;19.05;48.65
49178;BME280;35016;55.674;37.468;2022-08-01T04:05:06;99299.38;;;19.18;48.62
49178;BME280;35016;55.674;37.468;2022-08-01T04:07:34;99290.16;;;19.23;48.38
49178;BME280;35016;55.674;37.468;2022-08-01T04:10:06;99281.09;;;19.31;48.30
49178;BME280;35016;55.674;37.468;2022-08-01T04:12:33;99273.50;;;19.36;48.19
49178;BME280;35016;55.674;37.468;2022-08-01T04:15:00;99296.66;;;19.44;48.01
49178;BME280;35016;55.674;37.468;2022-08-01T04:17:29;99276.91;;;19.50;47.73
49178;BME280;35016;55.674;37.468;2022-08-01T04:19:56;99268.34;;;19.52;47.69
49178;BME280;35016;55.674;37.468;2022-08-01T04:22:23;99281.63;;;19.67;47.37
49178;BME280;35016;55.674;37.468;2022-08-01T04:24:53;99277.91;;;19.72;47.22
49178;BME280;35016;55.674;37.468;2022-08-01T04:27:29;99290.50;;;19.82;46.91
49178;BME280;35016;55.674;37.468;2022-08-01T04:30:21;99292.44;;;19.90;47.06
49178;BME280;35016;55.674;37.468;2022-08-01T04:32:49;99297.94;;;19.98;47.14
49178;BME280;35016;55.674;37.468;2022-08-01T04:35:18;99292.91;;;20.00;46.56
49178;BME280;35016;55.674;37.468;2022-08-01T04:38:08;99279.78;;;20.06;46.40
49178;BME280;35016;55.674;37.468;2022-08-01T04:40:37;99283.47;;;20.19;46.39
49178;BME280;35016;55.674;37.468;2022-08-01T04:43:04;99293.50;;;20.23;46.05
49178;BME280;35016;55.674;37.468;2022-08-01T04:45:33;99291.06;;;20.30;46.29
49178;BME280;35016;55.674;37.468;2022-08-01T04:48:01;99287.66;;;20.33;46.25
49178;BME280;35016;55.674;37.468;2022-08-01T04:50:35;99297.19;;;20.45;46.04
49178;BME280;35016;55.674;37.468;2022-08-01T04:53:50;99281.00;;;20.43;45.90
49178;BME280;35016;55.674;37.468;2022-08-01T04:56:19;99305.88;;;20.64;45.60
49178;BME280;35016;55.674;37.468;2022-08-01T04:58:50;99285.63;;;20.60;45.58
49178;BME280;35016;55.674;37.468;2022-08-01T05:01:49;99279.41;;;20.71;45.21
49178;BME280;35016;55.674;37.468;2022-08-01T05:08:11;99284.03;;;20.88;44.81
49178;BME280;35016;55.674;37.468;2022-08-01T05:10:39;99296.28;;;20.99;44.86
49178;BME280;35016;55.674;37.468;2022-08-01T05:13:06;99289.63;;;21.00;44.55
49178;BME280;35016;55.674;37.468;2022-08-01T05:15:35;99299.16;;;21.12;44.52
49178;BME280;35016;55.674;37.468;2022-08-01T05:18:06;99307.22;;;21.17;44.25
49178;BME280;35016;55.674;37.468;2022-08-01T05:20:37;99294.03;;;21.22;44.22
49178;BME280;35016;55.674;37.468;2022-08-01T05:23:04;99288.06;;;21.20;44.16
49178;BME280;35016;55.674;37.468;2022-08-01T05:25:36;99295.75;;;21.36;44.26
49178;BME280;35016;55.674;37.468;2022-08-01T05:28:23;99299.75;;;21.47;44.02
49178;BME280;35016;55.674;37.468;2022-08-01T05:30:50;99274.91;;;21.47;44.12
49178;BME280;35016;55.674;37.468;2022-08-01T05:33:20;99292.47;;;21.63;43.86
49178;BME280;35016;55.674;37.468;2022-08-01T05:35:48;99299.06;;;21.71;43.63
49178;BME280;35016;55.674;37.468;2022-08-01T05:38:15;99302.44;;;21.76;43.71
49178;BME280;35016;55.674;37.468;2022-08-01T05:40:49;99282.53;;;21.83;43.38
49178;BME280;35016;55.674;37.468;2022-08-01T05:43:18;99277.38;;;21.81;43.32
49178;BME280;35016;55.674;37.468;2022-08-01T05:45:47;99263.00;;;21.88;43.28
49178;BME280;35016;55.674;37.468;2022-08-01T05:48:17;99280.63;;;21.95;42.93
49178;BME280;35016;55.674;37.468;2022-08-01T05:50:48;99275.19;;;22.08;42.91
49178;BME280;35016;55.674;37.468;2022-08-01T05:53:27;99271.50;;;22.16;42.61
49178;BME280;35016;55.674;37.468;2022-08-01T05:56:01;99279.56;;;22.21;42.36
49178;BME280;35016;55.674;37.468;2022-08-01T05:58:40;99279.63;;;22.33;42.30
49178;BME280;35016;55.674;37.468;2022-08-01T06:01:07;99248.75;;;22.31;42.16
49178;BME280;35016;55.674;37.468;2022-08-01T06:03:35;99282.03;;;22.47;41.78
49178;BME280;35016;55.674;37.468;2022-08-01T06:06:05;99266.25;;;22.47;41.61
49178;BME280;35016;55.674;37.468;2022-08-01T06:08:33;99288.06;;;22.61;41.39
49178;BME280;35016;55.674;37.468;2022-08-01T06:11:01;99277.69;;;22.70;41.09
49178;BME280;35016;55.674;37.468;2022-08-01T06:13:32;99281.13;;;22.79;41.07
49178;BME280;35016;55.674;37.468;2022-08-01T06:16:13;99298.22;;;22.94;41.04
49178;BME280;35016;55.674;37.468;2022-08-01T06:18:41;99283.16;;;22.91;40.99
49178;BME280;35016;55.674;37.468;2022-08-01T06:21:08;99290.13;;;23.13;40.89
49178;BME280;35016;55.674;37.468;2022-08-01T06:23:35;99283.78;;;23.12;40.75
49178;BME280;35016;55.674;37.468;2022-08-01T06:26:06;99276.19;;;23.22;40.73
49178;BME280;35016;55.674;37.468;2022-08-01T06:28:34;99266.94;;;23.30;40.58
49178;BME280;35016;55.674;37.468;2022-08-01T06:31:03;99287.22;;;23.46;40.53
49178;BME280;35016;55.674;37.468;2022-08-01T06:33:37;99280.41;;;23.56;40.48
49178;BME280;35016;55.674;37.468;2022-08-01T06:36:18;99286.59;;;23.65;39.88
49178;BME280;35016;55.674;37.468;2022-08-01T06:38:47;99297.97;;;23.75;40.02
49178;BME280;35016;55.674;37.468;2022-08-01T06:41:14;99272.59;;;23.73;40.07
49178;BME280;35016;55.674;37.468;2022-08-01T06:43:41;99281.91;;;23.81;39.92
49178;BME280;35016;55.674;37.468;2022-08-01T06:46:12;99295.78;;;23.97;39.45
49178;BME280;35016;55.674;37.468;2022-08-01T06:48:43;99280.34;;;23.96;39.50
49178;BME280;35016;55.674;37.468;2022-08-01T06:51:52;99285.06;;;23.95;39.52
49178;BME280;35016;55.674;37.468;2022-08-01T06:57:42;99296.59;;;23.97;39.60
49178;BME280;35016;55.674;37.468;2022-08-01T07:00:21;99281.81;;;24.05;39.11
49178;BME280;35016;55.674;37.468;2022-08-01T07:03:29;99289.31;;;24.05;39.42
49178;BME280;35016;55.674;37.468;2022-08-01T07:06:17;99286.19;;;24.22;39.36
49178;BME280;35016;55.674;37.468;2022-08-01T07:09:11;99300.22;;;24.42;38.96
49178;BME280;35016;55.674;37.468;2022-08-01T07:11:43;99289.03;;;24.38;39.03
49178;BME280;35016;55.674;37.468;2022-08-01T07:14:11;99281.16;;;24.40;38.94
49178;BME280;35016;55.674;37.468;2022-08-01T07:16:38;99297.09;;;24.43;38.82
49178;BME280;35016;55.674;37.468;2022-08-01T07:19:06;99299.94;;;24.47;39.03
49178;BME280;35016;55.674;37.468;2022-08-01T07:21:33;99300.28;;;24.45;38.81
49178;BME280;35016;55.674;37.468;2022-08-01T07:24:08;99299.16;;;24.62;38.92
49178;BME280;35016;55.674;37.468;2022-08-01T07:26:40;99302.00;;;24.81;38.90
49178;BME280;35016;55.674;37.468;2022-08-01T07:29:21;99306.28;;;24.79;38.80
49178;BME280;35016;55.674;37.468;2022-08-01T07:31:48;99302.72;;;24.78;38.45
49178;BME280;35016;55.674;37.468;2022-08-01T07:34:15;99304.75;;;24.81;38.72
49178;BME280;35016;55.674;37.468;2022-08-01T07:36:42;99302.56;;;24.87;38.64
49178;BME280;35016;55.674;37.468;2022-08-01T07:39:09;99302.72;;;24.94;38.61
49178;BME280;35016;55.674;37.468;2022-08-01T07:41:36;99289.84;;;25.01;38.62
49178;BME280;35016;55.674;37.468;2022-08-01T07:44:24;99306.34;;;25.14;38.59
49178;BME280;35016;55.674;37.468;2022-08-01T07:46:53;99290.25;;;25.19;38.46
49178;BME280;35016;55.674;37.468;2022-08-01T07:49:24;99295.59;;;25.28;38.11
49178;BME280;35016;55.674;37.468;2022-08-01T07:51:52;99279.91;;;25.36;38.21
49178;BME280;35016;55.674;37.468;2022-08-01T07:54:31;99292.31;;;25.42;37.93
49178;BME280;35016;55.674;37.468;2022-08-01T07:57:01;99282.63;;;25.51;37.93
49178;BME280;35016;55.674;37.468;2022-08-01T07:59:29;99307.78;;;25.58;37.68
49178;BME280;35016;55.674;37.468;2022-08-01T08:01:56;99301.19;;;25.47;37.47
49178;BME280;35016;55.674;37.468;2022-08-01T08:04:24;99301.81;;;25.41;37.56
49178;BME280;35016;55.674;37.468;2022-08-01T08:06:51;99302.91;;;25.36;37.18
49178;BME280;35016;55.674;37.468;2022-08-01T08:09:20;99297.00;;;25.38;37.02
49178;BME280;35016;55.674;37.468;2022-08-01T08:11:47;99306.81;;;25.51;37.06
49178;BME280;35016;55.674;37.468;2022-08-01T08:14:17;99304.25;;;25.61;36.44
49178;BME280;35016;55.674;37.468;2022-08-01T08:16:45;99300.69;;;25.61;36.01
49178;BME280;35016;55.674;37.468;2022-08-01T08:19:19;99291.88;;;25.75;35.63
49178;BME280;35016;55.674;37.468;2022-08-01T08:22:24;99293.63;;;25.83;35.41
49178;BME280;35016;55.674;37.468;2022-08-01T08:28:17;99256.78;;;25.67;35.85
49178;BME280;35016;55.674;37.468;2022-08-01T08:30:58;99281.94;;;25.74;35.24
49178;BME280;35016;55.674;37.468;2022-08-01T08:33:52;99277.91;;;25.71;35.33
49178;BME280;35016;55.674;37.468;2022-08-01T08:37:25;99274.16;;;25.63;35.19
49178;BME280;35016;55.674;37.468;2022-08-01T08:40:38;99289.38;;;25.70;35.17
49178;BME280;35016;55.674;37.468;2022-08-01T08:48:00;99273.50;;;25.70;35.40
49178;BME280;35016;55.674;37.468;2022-08-01T08:50:50;99265.81;;;25.63;34.97
49178;BME280;35016;55.674;37.468;2022-08-01T08:53:32;99272.13;;;25.80;34.55
49178;BME280;35016;55.674;37.468;2022-08-01T08:56:35;99279.78;;;26.06;34.32
49178;BME280;35016;55.674;37.468;2022-08-01T08:59:31;99249.38;;;25.93;34.64
49178;BME280;35016;55.674;37.468;2022-08-01T09:02:30;99269.34;;;26.22;33.71
49178;BME280;35016;55.674;37.468;2022-08-01T09:13:13;99253.25;;;26.54;33.29
49178;BME280;35016;55.674;37.468;2022-08-01T09:16:29;99251.47;;;26.65;32.82
49178;BME280;35016;55.674;37.468;2022-08-01T09:24:15;99235.53;;;26.62;32.67
49178;BME280;35016;55.674;37.468;2022-08-01T09:27:20;99253.66;;;26.79;32.45
49178;BME280;35016;55.674;37.468;2022-08-01T09:31:07;99240.59;;;26.83;32.15
49178;BME280;35016;55.674;37.468;2022-08-01T09:37:50;99247.72;;;27.33;31.60
49178;BME280;35016;55.674;37.468;2022-08-01T09:56:47;99236.69;;;28.07;30.62
49178;BME280;35016;55.674;37.468;2022-08-01T09:59:55;99244.59;;;28.02;30.57
49178;BME280;35016;55.674;37.468;2022-08-01T10:02:49;99235.09;;;28.06;30.16
49178;BME280;35016;55.674;37.468;2022-08-01T10:25:34;99222.44;;;28.60;29.33
49178;BME280;35016;55.674;37.468;2022-08-01T11:23:25;99206.53;;;28.64;29.09
49178;BME280;35016;55.674;37.468;2022-08-01T11:44:26;99212.91;;;28.21;29.98
49178;BME280;35016;55.674;37.468;2022-08-01T11:48:21;99186.00;;;27.98;29.84
49178;BME280;35016;55.674;37.468;2022-08-01T12:42:07;99175.56;;;38.84;22.33
49178;BME280;35016;55.674;37.468;2022-08-01T12:44:35;99168.88;;;38.99;21.13
49178;BME280;35016;55.674;37.468;2022-08-01T12:47:03;99168.97;;;39.30;20.38
49178;BME280;35016;55.674;37.468;2022-08-01T12:49:35;99159.63;;;39.43;19.77
49178;BME280;35016;55.674;37.468;2022-08-01T12:52:04;99176.50;;;38.68;19.61
49178;BME280;35016;55.674;37.468;2022-08-01T12:57:29;99155.84;;;35.88;20.99
49178;BME280;35016;55.674;37.468;2022-08-01T13:00:10;99151.59;;;34.81;20.96
49178;BME280;35016;55.674;37.468;2022-08-01T13:02:39;99163.72;;;33.77;22.17
49178;BME280;35016;55.674;37.468;2022-08-01T13:05:08;99163.41;;;33.07;22.46
49178;BME280;35016;55.674;37.468;2022-08-01T13:07:37;99154.75;;;33.25;22.30
49178;BME280;35016;55.674;37.468;2022-08-01T13:10:13;99155.94;;;34.15;21.67
49178;BME280;35016;55.674;37.468;2022-08-01T13:12:49;99135.09;;;35.03;21.47
49178;BME280;35016;55.674;37.468;2022-08-01T13:15:30;99140.19;;;35.48;20.54
49178;BME280;35016;55.674;37.468;2022-08-01T13:18:29;99142.78;;;36.27;20.40
49178;BME280;35016;55.674;37.468;2022-08-01T13:24:10;99139.03;;;37.49;19.38
49178;BME280;35016;55.674;37.468;2022-08-01T13:26:52;99141.91;;;37.88;19.30
49178;BME280;35016;55.674;37.468;2022-08-01T13:32:13;99132.50;;;39.20;19.14
49178;BME280;35016;55.674;37.468;2022-08-01T14:00:20;99139.22;;;39.57;17.99
49178;BME280;35016;55.674;37.468;2022-08-01T14:03:08;99137.06;;;39.39;17.85
49178;BME280;35016;55.674;37.468;2022-08-01T14:05:51;99150.63;;;39.66;17.99
49178;BME280;35016;55.674;37.468;2022-08-01T14:08:32;99142.69;;;39.61;17.54
49178;BME280;35016;55.674;37.468;2022-08-01T14:11:34;99153.13;;;38.98;17.71
49178;BME280;35016;55.674;37.468;2022-08-01T14:14:24;99130.88;;;37.51;18.55
49178;BME280;35016;55.674;37.468;2022-08-01T14:29:04;99129.03;;;36.90;19.27
49178;BME280;35016;55.674;37.468;2022-08-01T14:31:31;99146.00;;;37.74;18.90
49178;BME280;35016;55.674;37.468;2022-08-01T14:34:00;99129.19;;;38.30;18.30
49178;BME280;35016;55.674;37.468;2022-08-01T14:36:28;99143.16;;;38.94;17.83
49178;BME280;35016;55.674;37.468;2022-08-01T14:39:04;99126.31;;;39.34;17.68
49178;BME280;35016;55.674;37.468;2022-08-01T14:41:33;99149.38;;;39.67;17.59
49178;BME280;35016;55.674;37.468;2022-08-01T14:44:00;99125.41;;;39.68;17.30
49178;BME280;35016;55.674;37.468;2022-08-01T15:12:52;99113.25;;;34.44;20.63
49178;BME280;35016;55.674;37.468;2022-08-01T15:15:47;99123.22;;;33.71;21.47
49178;BME280;35016;55.674;37.468;2022-08-01T15:18:17;99107.78;;;32.91;22.13
49178;BME280;35016;55.674;37.468;2022-08-01T15:20:51;99119.25;;;32.29;22.50
49178;BME280;35016;55.674;37.468;2022-08-01T15:24:04;99120.06;;;31.70;23.04
49178;BME280;35016;55.674;37.468;2022-08-01T15:26:33;99116.31;;;31.22;23.51
49178;BME280;35016;55.674;37.468;2022-08-01T15:29:14;99114.50;;;30.72;23.85
49178;BME280;35016;55.674;37.468;2022-08-01T15:32:11;99117.34;;;30.37;24.15
49178;BME280;35016;55.674;37.468;2022-08-01T15:34:45;99102.97;;;30.13;24.57
49178;BME280;35016;55.674;37.468;2022-08-01T15:37:19;99120.09;;;29.98;24.84
49178;BME280;35016;55.674;37.468;2022-08-01T15:39:48;99099.72;;;29.83;25.02
49178;BME280;35016;55.674;37.468;2022-08-01T15:42:20;99096.13;;;30.00;24.57
49178;BME280;35016;55.674;37.468;2022-08-01T15:44:53;99089.72;;;29.75;24.56
49178;BME280;35016;55.674;37.468;2022-08-01T15:47:20;99116.47;;;29.72;24.92
49178;BME280;35016;55.674;37.468;2022-08-01T15:49:51;99094.91;;;29.58;25.30
49178;BME280;35016;55.674;37.468;2022-08-01T15:52:18;99093.63;;;29.38;25.59
49178;BME280;35016;55.674;37.468;2022-08-01T15:54:49;99101.28;;;29.52;25.66
49178;BME280;35016;55.674;37.468;2022-08-01T15:57:16;99096.50;;;29.56;25.77
49178;BME280;35016;55.674;37.468;2022-08-01T15:59:44;99095.72;;;29.73;25.67
49178;BME280;35016;55.674;37.468;2022-08-01T16:02:12;99110.56;;;30.09;25.68
49178;BME280;35016;55.674;37.468;2022-08-01T16:04:41;99106.50;;;30.60;25.07
49178;BME280;35016;55.674;37.468;2022-08-01T16:07:09;99106.34;;;31.17;24.41
49178;BME280;35016;55.674;37.468;2022-08-01T16:09:37;99097.03;;;31.38;24.59
49178;BME280;35016;55.674;37.468;2022-08-01T16:12:05;99113.25;;;31.68;24.11
49178;BME280;35016;55.674;37.468;2022-08-01T16:14:35;99089.13;;;31.88;23.91
49178;BME280;35016;55.674;37.468;2022-08-01T16:17:03;99092.84;;;32.19;23.71
49178;BME280;35016;55.674;37.468;2022-08-01T16:19:31;99094.03;;;32.25;23.52
49178;BME280;35016;55.674;37.468;2022-08-01T16:21:58;99099.88;;;31.93;23.82
49178;BME280;35016;55.674;37.468;2022-08-01T16:24:37;99075.03;;;31.33;24.01
49178;BME280;35016;55.674;37.468;2022-08-01T16:27:05;99109.66;;;30.83;24.63
49178;BME280;35016;55.674;37.468;2022-08-01T16:29:33;99104.94;;;30.38;24.73
49178;BME280;35016;55.674;37.468;2022-08-01T16:32:32;99111.34;;;30.13;25.23
49178;BME280;35016;55.674;37.468;2022-08-01T16:35:08;99097.31;;;29.78;25.36
49178;BME280;35016;55.674;37.468;2022-08-01T16:37:39;99104.50;;;29.75;25.71
49178;BME280;35016;55.674;37.468;2022-08-01T16:40:09;99096.50;;;29.77;25.66
49178;BME280;35016;55.674;37.468;2022-08-01T16:42:36;99109.69;;;29.77;25.54
49178;BME280;35016;55.674;37.468;2022-08-01T16:45:10;99110.06;;;29.50;25.83
49178;BME280;35016;55.674;37.468;2022-08-01T16:47:40;99101.63;;;29.40;26.17
49178;BME280;35016;55.674;37.468;2022-08-01T16:50:13;99125.16;;;29.42;26.46
49178;BME280;35016;55.674;37.468;2022-08-01T16:52:42;99102.00;;;29.27;26.30
49178;BME280;35016;55.674;37.468;2022-08-01T16:55:10;99121.47;;;29.10;26.31
49178;BME280;35016;55.674;37.468;2022-08-01T16:57:38;99109.63;;;28.61;26.85
49178;BME280;35016;55.674;37.468;2022-08-01T17:00:09;99118.47;;;28.19;27.40
49178;BME280;35016;55.674;37.468;2022-08-01T17:02:46;99126.22;;;27.92;27.88
49178;BME280;35016;55.674;37.468;2022-08-01T17:05:14;99119.78;;;27.48;28.33
49178;BME280;35016;55.674;37.468;2022-08-01T17:07:41;99111.31;;;27.03;29.02
49178;BME280;35016;55.674;37.468;2022-08-01T17:10:12;99101.63;;;26.64;29.47
49178;BME280;35016;55.674;37.468;2022-08-01T17:12:40;99095.88;;;26.27;29.66
49178;BME280;35016;55.674;37.468;2022-08-01T17:15:08;99106.69;;;26.05;30.04
49178;BME280;35016;55.674;37.468;2022-08-01T17:17:38;99114.53;;;25.77;30.52
49178;BME280;35016;55.674;37.468;2022-08-01T17:20:14;99112.44;;;25.51;30.92
49178;BME280;35016;55.674;37.468;2022-08-01T17:22:44;99110.84;;;25.11;31.35
49178;BME280;35016;55.674;37.468;2022-08-01T17:25:15;99120.84;;;24.96;31.53
49178;BME280;35016;55.674;37.468;2022-08-01T17:27:43;99125.28;;;24.82;31.86
49178;BME280;35016;55.674;37.468;2022-08-01T17:30:36;99131.97;;;24.61;32.57
49178;BME280;35016;55.674;37.468;2022-08-01T17:33:04;99129.34;;;24.33;32.51
49178;BME280;35016;55.674;37.468;2022-08-01T17:35:31;99124.50;;;24.15;32.75
49178;BME280;35016;55.674;37.468;2022-08-01T17:37:58;99133.59;;;23.99;33.09
49178;BME280;35016;55.674;37.468;2022-08-01T17:40:25;99133.00;;;23.74;33.67
49178;BME280;35016;55.674;37.468;2022-08-01T17:43:08;99142.97;;;23.63;33.82
49178;BME280;35016;55.674;37.468;2022-08-01T17:45:35;99127.13;;;23.48;34.06
49178;BME280;35016;55.674;37.468;2022-08-01T17:48:18;99132.16;;;23.30;34.65
49178;BME280;35016;55.674;37.468;2022-08-01T17:50:46;99132.13;;;23.14;34.55
49178;BME280;35016;55.674;37.468;2022-08-01T17:53:15;99132.03;;;22.99;34.90
49178;BME280;35016;55.674;37.468;2022-08-01T17:55:47;99138.44;;;22.87;34.96
49178;BME280;35016;55.674;37.468;2022-08-01T17:58:26;99126.53;;;22.74;35.92
49178;BME280;35016;55.674;37.468;2022-08-01T18:01:20;99120.94;;;22.59;36.05
49178;BME280;35016;55.674;37.468;2022-08-01T18:03:54;99121.44;;;22.36;35.64